Time;durP1;ratioP1;P1;durP2;ratioP2;P2;SDS_P1;SDS_P2;PMS_P1;PMS_P2;Temp;Humidity;BMP_temperature;BMP_pressure;BME280_temperature;BME280_humidity;BME280_pressure;Samples;Min_cycle;Max_cycle;Signal;HPM_P1;HPM_P2
2022/06/02 00:00:19;;;;;;;15.68;13.70;;;8.90;99.90;;;;;;4985934;28;20042;-74
2022/06/02 00:03:08;;;;;;;15.73;14.13;;;9.00;99.90;;;;;;4988322;28;20382;-75
2022/06/02 00:06:11;;;;;;;16.10;14.40;;;8.90;99.90;;;;;;4987880;28;20458;-75
2022/06/02 00:09:07;;;;;;;15.68;13.98;;;9.00;99.90;;;;;;4987170;28;20120;-75
2022/06/02 00:11:36;;;;;;;16.92;13.38;;;8.80;99.90;;;;;;4984956;28;20085;-75
2022/06/02 00:14:10;;;;;;;13.80;12.40;;;8.70;99.90;;;;;;4983996;28;20079;-74
2022/06/02 00:16:56;;;;;;;14.57;12.70;;;8.60;99.90;;;;;;4988070;28;20403;-74
2022/06/02 00:19:35;;;;;;;16.10;12.30;;;8.50;99.90;;;;;;4973213;28;20057;-74
2022/06/02 00:22:11;;;;;;;12.48;10.98;;;8.50;99.90;;;;;;5000772;28;20046;-76
2022/06/02 00:24:53;;;;;;;15.27;12.43;;;8.50;99.90;;;;;;4984928;28;20057;-75
2022/06/02 00:27:41;;;;;;;13.35;11.38;;;8.40;99.90;;;;;;4987589;28;20089;-74
2022/06/02 00:30:23;;;;;;;13.50;11.18;;;8.40;99.90;;;;;;4988330;28;20499;-75
2022/06/02 00:33:01;;;;;;;14.65;12.02;;;8.50;99.90;;;;;;4983271;28;20049;-75
2022/06/02 00:35:42;;;;;;;13.93;12.63;;;8.40;99.90;;;;;;4987395;28;20057;-75
2022/06/02 00:38:18;;;;;;;15.23;11.73;;;8.40;99.90;;;;;;4993546;28;20616;-74
2022/06/02 00:40:44;;;;;;;14.45;12.40;;;8.30;99.90;;;;;;4975661;28;20153;-76
2022/06/02 00:43:42;;;;;;;14.27;11.55;;;8.20;99.90;;;;;;4985482;28;20100;-74
2022/06/02 00:46:24;;;;;;;16.92;11.57;;;8.30;99.90;;;;;;4985621;28;20418;-74
2022/06/02 00:48:55;;;;;;;13.90;10.57;;;8.30;99.90;;;;;;4983473;28;20117;-75
2022/06/02 00:51:37;;;;;;;11.63;10.43;;;8.10;99.90;;;;;;4986293;28;20543;-74
2022/06/02 00:57:30;;;;;;;11.55;10.35;;;8.10;99.90;;;;;;4986679;28;20059;-75
2022/06/02 01:00:11;;;;;;;11.95;10.65;;;8.20;99.90;;;;;;4979059;28;20468;-74
2022/06/02 01:03:18;;;;;;;14.48;12.98;;;8.20;99.90;;;;;;4984100;28;20038;-74
2022/06/02 01:06:17;;;;;;;12.70;11.40;;;8.30;99.90;;;;;;4967048;28;20058;-74
2022/06/02 01:09:21;;;;;;;12.13;10.93;;;8.20;99.90;;;;;;4968389;28;20133;-74
2022/06/02 01:11:52;;;;;;;15.95;12.55;;;8.30;99.90;;;;;;4985636;28;20069;-74
2022/06/02 01:14:55;;;;;;;13.52;12.15;;;8.20;99.90;;;;;;4986519;28;20559;-74
2022/06/02 01:17:42;;;;;;;15.43;13.88;;;8.10;99.90;;;;;;4967480;28;20065;-74
2022/06/02 01:20:23;;;;;;;17.58;11.98;;;8.10;99.90;;;;;;4983609;28;20402;-74
2022/06/02 01:23:12;;;;;;;15.57;14.00;;;8.00;99.90;;;;;;4983991;28;20047;-74
2022/06/02 01:25:56;;;;;;;14.88;13.38;;;8.00;99.90;;;;;;4983909;28;20133;-74
2022/06/02 01:28:47;;;;;;;15.70;13.70;;;8.10;99.90;;;;;;4984477;28;20056;-74
2022/06/02 01:31:35;;;;;;;19.52;15.75;;;8.10;99.90;;;;;;4982151;28;20049;-75
2022/06/02 01:34:23;;;;;;;17.10;15.40;;;8.10;99.90;;;;;;4986409;28;20053;-75
2022/06/02 01:37:04;;;;;;;14.90;13.30;;;8.20;99.90;;;;;;4993339;28;20052;-74
2022/06/02 01:39:41;;;;;;;18.17;13.13;;;8.10;99.90;;;;;;4993180;28;20046;-74
2022/06/02 01:42:29;;;;;;;13.68;12.27;;;8.00;99.90;;;;;;4966406;28;20912;-73
2022/06/02 01:45:23;;;;;;;10.65;9.55;;;8.10;99.90;;;;;;4993968;28;20096;-74
2022/06/02 01:48:02;;;;;;;12.85;11.45;;;7.90;99.90;;;;;;4966966;28;20413;-74
2022/06/02 01:50:47;;;;;;;13.20;11.90;;;7.90;99.90;;;;;;4988873;23;20047;-74
2022/06/02 01:53:50;;;;;;;14.85;11.73;;;7.80;99.90;;;;;;4969643;28;20051;-74
2022/06/02 01:56:35;;;;;;;13.75;12.25;;;7.90;99.90;;;;;;4965916;28;20047;-74
2022/06/02 01:59:14;;;;;;;13.18;11.93;;;7.90;99.90;;;;;;4977687;28;20045;-74
2022/06/02 02:02:12;;;;;;;12.27;10.27;;;7.90;99.90;;;;;;4985781;28;21070;-74
2022/06/02 02:05:15;;;;;;;13.40;12.02;;;7.90;99.90;;;;;;4984156;28;20597;-75
2022/06/02 02:07:47;;;;;;;12.85;11.55;;;7.80;99.90;;;;;;4983848;28;20444;-73
2022/06/02 02:10:23;;;;;;;13.18;11.88;;;7.90;99.90;;;;;;4966726;28;20125;-74
2022/06/02 02:12:49;;;;;;;14.88;12.93;;;8.00;99.90;;;;;;4975001;28;20432;-74
2022/06/02 02:15:32;;;;;;;15.48;13.57;;;8.00;99.90;;;;;;4984089;28;20061;-73
2022/06/02 02:18:14;;;;;;;14.02;12.63;;;8.00;99.90;;;;;;4984027;28;20459;-74
2022/06/02 02:20:46;;;;;;;13.60;12.18;;;7.90;99.90;;;;;;4981751;28;20046;-74
2022/06/02 02:23:52;;;;;;;13.00;11.20;;;8.00;99.90;;;;;;4983368;28;20133;-75
2022/06/02 02:26:26;;;;;;;11.27;10.15;;;7.90;99.90;;;;;;4968128;28;20137;-74
2022/06/02 02:29:23;;;;;;;24.05;10.85;;;7.80;99.90;;;;;;4983210;28;20051;-74
2022/06/02 02:32:29;;;;;;;10.50;9.35;;;7.80;99.90;;;;;;4964657;28;20059;-74
2022/06/02 02:35:14;;;;;;;11.15;9.25;;;7.60;99.90;;;;;;4973238;28;20044;-75
2022/06/02 02:37:57;;;;;;;11.10;9.98;;;7.60;99.90;;;;;;4983996;28;20077;-73
2022/06/02 02:40:31;;;;;;;12.50;10.70;;;7.60;99.90;;;;;;4980883;28;20065;-74
2022/06/02 02:43:20;;;;;;;12.70;10.57;;;7.50;99.90;;;;;;4985286;28;20434;-75
2022/06/02 02:45:53;;;;;;;11.73;10.63;;;7.50;99.90;;;;;;4984522;28;20129;-74
2022/06/02 02:48:19;;;;;;;12.75;11.05;;;7.50;99.90;;;;;;4984236;28;20034;-74
2022/06/02 02:51:09;;;;;;;15.75;11.02;;;7.50;99.90;;;;;;4982953;28;20505;-75
2022/06/02 02:53:43;;;;;;;13.45;11.80;;;7.40;99.90;;;;;;4965252;28;20112;-74
2022/06/02 02:56:28;;;;;;;12.30;10.93;;;7.50;99.90;;;;;;4984463;28;20080;-74
2022/06/02 02:59:04;;;;;;;12.88;10.95;;;7.50;99.90;;;;;;4966368;28;20133;-74
2022/06/02 03:01:53;;;;;;;14.45;11.73;;;7.50;99.90;;;;;;4975538;28;20046;-74
2022/06/02 03:04:19;;;;;;;11.50;10.30;;;7.50;99.90;;;;;;4979816;28;20105;-75
2022/06/02 03:06:45;;;;;;;11.00;9.80;;;7.50;99.90;;;;;;4983781;28;20046;-75
2022/06/02 03:09:38;;;;;;;11.65;10.18;;;7.60;99.90;;;;;;4982659;28;20085;-74
2022/06/02 03:12:27;;;;;;;13.65;11.40;;;7.60;99.90;;;;;;4984116;28;20100;-75
2022/06/02 03:15:18;;;;;;;11.65;10.55;;;7.60;99.90;;;;;;4982860;28;20468;-75
2022/06/02 03:17:44;;;;;;;12.73;11.30;;;7.60;99.90;;;;;;4981099;28;20117;-76
2022/06/02 03:20:21;;;;;;;14.02;11.43;;;7.60;99.90;;;;;;4979184;28;20462;-74
2022/06/02 03:23:14;;;;;;;12.15;10.38;;;7.50;99.90;;;;;;4983142;28;20444;-74
2022/06/02 03:25:42;;;;;;;12.05;10.85;;;7.50;99.90;;;;;;4987112;28;20058;-74
2022/06/02 03:28:28;;;;;;;11.43;9.82;;;7.50;99.90;;;;;;4986321;28;20046;-74
2022/06/02 03:31:05;;;;;;;15.32;10.82;;;7.60;99.90;;;;;;4968566;28;20093;-75
2022/06/02 03:33:57;;;;;;;11.85;10.23;;;7.50;99.90;;;;;;4987210;28;20099;-77
2022/06/02 03:36:44;;;;;;;11.38;10.13;;;7.50;99.90;;;;;;4983750;28;20185;-75
2022/06/02 03:39:24;;;;;;;11.43;10.23;;;7.50;99.90;;;;;;4986034;28;20049;-75
2022/06/02 03:42:39;;;;;;;13.40;10.63;;;7.50;99.90;;;;;;4968929;28;20424;-76
2022/06/02 03:45:25;;;;;;;11.52;10.13;;;7.60;99.90;;;;;;4974010;28;20077;-74
2022/06/02 03:47:57;;;;;;;12.02;10.82;;;7.60;99.90;;;;;;4986288;28;20050;-74
2022/06/02 03:50:22;;;;;;;15.23;10.18;;;7.60;99.90;;;;;;4983963;28;20420;-73
2022/06/02 03:53:04;;;;;;;12.88;10.95;;;7.70;99.90;;;;;;4986680;28;20050;-75
2022/06/02 03:55:53;;;;;;;11.60;10.48;;;7.80;99.90;;;;;;4986272;28;20437;-74
2022/06/02 03:58:39;;;;;;;12.27;10.90;;;7.90;99.90;;;;;;4987541;28;20035;-74
2022/06/02 04:01:06;;;;;;;11.98;9.57;;;7.90;99.90;;;;;;4983520;28;20394;-74
2022/06/02 04:03:52;;;;;;;12.15;10.90;;;8.00;99.90;;;;;;4977946;28;20123;-74
2022/06/02 04:06:21;;;;;;;13.40;10.15;;;8.10;99.90;;;;;;4987291;28;20049;-74
2022/06/02 04:09:02;;;;;;;14.32;11.10;;;8.30;99.90;;;;;;4987120;28;20085;-75
2022/06/02 04:14:44;;;;;;;16.80;11.52;;;8.60;99.90;;;;;;4985310;28;20046;-74
2022/06/02 04:17:32;;;;;;;13.75;11.00;;;8.60;99.90;;;;;;4985727;28;20427;-74
2022/06/02 04:20:35;;;;;;;12.27;9.07;;;8.60;99.90;;;;;;4973508;28;20045;-74
2022/06/02 04:23:36;;;;;;;14.77;11.63;;;8.70;99.90;;;;;;4986559;28;20378;-75
2022/06/02 04:26:32;;;;;;;11.35;10.23;;;8.90;99.90;;;;;;4986535;28;20046;-72
2022/06/02 04:29:26;;;;;;;11.57;10.50;;;9.50;99.90;;;;;;4982529;28;20050;-74
2022/06/02 04:32:19;;;;;;;15.68;10.02;;;9.70;99.90;;;;;;4984541;28;20382;-75
2022/06/02 04:35:12;;;;;;;9.10;8.18;;;9.80;99.90;;;;;;4987517;28;20522;-74
2022/06/02 04:37:37;;;;;;;9.07;7.97;;;9.60;99.90;;;;;;4986710;28;20046;-75
2022/06/02 04:40:38;;;;;;;8.50;7.65;;;9.40;99.90;;;;;;4982625;28;20042;-73
2022/06/02 04:43:04;;;;;;;13.65;9.07;;;9.30;99.90;;;;;;4982761;28;20443;-75
2022/06/02 04:46:02;;;;;;;8.68;7.78;;;9.30;99.90;;;;;;4986861;28;20046;-75
2022/06/02 04:48:54;;;;;;;9.00;8.10;;;9.40;99.90;;;;;;4986602;28;20783;-75
2022/06/02 04:51:50;;;;;;;9.68;8.45;;;9.40;99.90;;;;;;4966423;28;20054;-75
2022/06/02 04:54:36;;;;;;;9.85;7.88;;;9.30;99.90;;;;;;4984755;28;20132;-75
2022/06/02 04:57:06;;;;;;;10.68;9.57;;;9.40;99.90;;;;;;4984203;28;20173;-75
2022/06/02 04:59:44;;;;;;;9.35;8.45;;;9.40;99.90;;;;;;4985319;28;20047;-75
2022/06/02 05:02:52;;;;;;;8.55;7.72;;;9.50;99.90;;;;;;4984336;28;20400;-75
2022/06/02 05:05:21;;;;;;;9.80;8.80;;;9.40;99.90;;;;;;4973919;28;20050;-75
2022/06/02 05:08:01;;;;;;;9.32;8.25;;;9.40;99.90;;;;;;4985225;28;20449;-75
2022/06/02 05:11:12;;;;;;;9.05;8.07;;;9.40;99.90;;;;;;4982209;28;20497;-75
2022/06/02 05:13:56;;;;;;;12.15;8.20;;;9.60;99.90;;;;;;4987210;28;20150;-74
2022/06/02 05:16:48;;;;;;;13.20;9.60;;;9.70;99.90;;;;;;4966601;28;20432;-74
2022/06/02 05:19:34;;;;;;;10.75;8.05;;;9.70;99.90;;;;;;4978816;28;20054;-74
2022/06/02 05:22:26;;;;;;;10.15;8.43;;;9.80;99.90;;;;;;4985002;28;20046;-75
2022/06/02 05:25:03;;;;;;;10.45;8.30;;;9.90;99.90;;;;;;4967685;28;20069;-74
2022/06/02 05:28:02;;;;;;;9.20;8.18;;;10.00;99.90;;;;;;4981559;28;20047;-75
2022/06/02 05:30:49;;;;;;;9.23;8.13;;;10.00;99.90;;;;;;4974831;28;20096;-74
2022/06/02 05:33:58;;;;;;;8.45;7.38;;;10.10;99.90;;;;;;4985314;28;20050;-74
2022/06/02 05:36:42;;;;;;;8.98;8.07;;;10.20;99.90;;;;;;4983939;28;20042;-74
2022/06/02 05:39:43;;;;;;;10.93;7.50;;;10.20;99.90;;;;;;4984662;28;20084;-74
2022/06/02 05:42:31;;;;;;;7.85;7.10;;;10.40;99.90;;;;;;4983395;28;20725;-74
2022/06/02 05:45:18;;;;;;;7.40;6.75;;;10.50;99.90;;;;;;4968797;28;20405;-74
2022/06/02 05:48:03;;;;;;;6.38;5.78;;;10.90;99.90;;;;;;4984293;28;20042;-75
2022/06/02 05:50:44;;;;;;;9.52;6.97;;;10.90;99.90;;;;;;4984636;28;20054;-75
2022/06/02 05:53:25;;;;;;;6.15;5.53;;;10.80;99.90;;;;;;4975968;28;20046;-74
2022/06/02 05:56:26;;;;;;;6.22;5.63;;;10.90;99.90;;;;;;4984626;28;20515;-74
2022/06/02 05:59:10;;;;;;;;;;;10.80;99.90;;;;;;4984979;28;20420;-75
2022/06/02 06:02:07;;;;;;;6.78;4.43;;;10.90;99.90;;;;;;4983624;28;19948;-75
2022/06/02 06:04:57;;;;;;;6.47;5.88;;;10.90;99.90;;;;;;4966011;28;20043;-74
2022/06/02 06:07:41;;;;;;;5.38;4.72;;;11.00;99.90;;;;;;4984315;28;20157;-75
2022/06/02 06:10:22;;;;;;;4.25;3.63;;;11.00;99.90;;;;;;5120883;27;20900;-75
2022/06/02 06:13:06;;;;;;;5.35;4.43;;;11.10;99.90;;;;;;5111899;28;20138;-75
2022/06/02 06:15:51;;;;;;;3.67;3.38;;;11.20;99.90;;;;;;5102188;28;20109;-78
2022/06/02 06:18:44;;;;;;;5.13;3.72;;;11.30;99.90;;;;;;5101617;28;20058;-79
2022/06/02 06:21:22;;;;;;;7.72;4.05;;;11.50;99.90;;;;;;5107880;27;20050;-78
2022/06/02 06:24:16;;;;;;;4.30;3.70;;;11.60;99.90;;;;;;5087691;28;20128;-75
2022/06/02 06:26:45;;;;;;;3.00;2.80;;;11.80;99.90;;;;;;5081138;28;20051;-78
2022/06/02 06:29:28;;;;;;;3.10;2.70;;;11.80;99.90;;;;;;5095815;28;20047;-75
2022/06/02 06:31:57;;;;;;;2.75;2.22;;;11.80;99.90;;;;;;5108039;28;20379;-76
2022/06/02 06:34:45;;;;;;;8.27;2.53;;;11.80;99.90;;;;;;5069015;28;20422;-76
2022/06/02 06:37:35;;;;;;;3.35;1.80;;;11.70;99.90;;;;;;5083067;28;20089;-75
2022/06/02 06:40:34;;;;;;;2.15;1.92;;;11.80;99.90;;;;;;5098086;28;20044;-75
2022/06/02 06:43:32;;;;;;;4.50;2.47;;;11.80;99.90;;;;;;5099126;28;20456;-76
2022/06/02 06:46:24;;;;;;;2.17;1.80;;;11.90;99.90;;;;;;5081097;28;20126;-76
2022/06/02 06:48:58;;;;;;;3.75;1.55;;;12.00;99.90;;;;;;5105124;28;20039;-76
2022/06/02 06:51:36;;;;;;;3.58;2.35;;;13.50;99.90;;;;;;5119020;27;20398;-76
2022/06/02 06:54:27;;;;;;;3.20;1.80;;;13.30;99.90;;;;;;5077920;27;20530;-75
2022/06/02 06:57:03;;;;;;;6.70;1.83;;;13.50;99.90;;;;;;5091643;28;20044;-77
2022/06/02 06:59:46;;;;;;;4.68;1.77;;;13.10;99.90;;;;;;5099136;28;20043;-76
2022/06/02 07:02:28;;;;;;;4.00;2.17;;;12.90;99.90;;;;;;5091235;28;20054;-77
2022/06/02 07:05:19;;;;;;;3.63;1.42;;;12.90;99.90;;;;;;5080769;28;20075;-77
2022/06/02 07:07:46;;;;;;;3.30;2.03;;;12.80;99.90;;;;;;5098504;28;20514;-76
2022/06/02 07:10:38;;;;;;;2.05;1.50;;;14.00;99.90;;;;;;5098945;28;20442;-77
2022/06/02 07:13:13;;;;;;;5.25;1.30;;;13.60;99.90;;;;;;5075928;28;20036;-76
2022/06/02 07:16:02;;;;;;;5.03;1.70;;;14.80;99.90;;;;;;5078663;28;20040;-73
2022/06/02 07:18:59;;;;;;;6.72;1.80;;;14.50;99.90;;;;;;5065082;28;20087;-74
2022/06/02 07:21:47;;;;;;;4.22;2.33;;;14.20;99.90;;;;;;5073241;28;20052;-80
2022/06/02 07:24:43;;;;;;;2.25;1.50;;;13.90;99.90;;;;;;5067648;28;20043;-77
2022/06/02 07:27:29;;;;;;;2.17;0.95;;;13.50;99.90;;;;;;5065380;28;20044;-77
2022/06/02 07:30:28;;;;;;;0.60;0.50;;;13.30;99.90;;;;;;5105292;28;20055;-76
2022/06/02 07:33:02;;;;;;;4.40;0.93;;;13.20;99.90;;;;;;5048258;28;20048;-77
2022/06/02 07:35:47;;;;;;;2.53;1.35;;;13.10;99.90;;;;;;5082212;28;20044;-77
2022/06/02 07:38:28;;;;;;;6.13;2.45;;;14.40;99.90;;;;;;5067621;28;20040;-76
2022/06/02 07:40:55;;;;;;;1.67;0.80;;;16.00;99.90;;;;;;5084196;28;20093;-77
2022/06/02 07:44:00;;;;;;;15.00;1.25;;;17.10;99.90;;;;;;5082036;28;20611;-77
2022/06/02 07:46:54;;;;;;;5.45;1.02;;;16.30;99.90;;;;;;5085851;28;20170;-78
2022/06/02 07:49:53;;;;;;;2.17;1.20;;;15.80;99.90;;;;;;5083946;28;20439;-75
2022/06/02 07:53:01;;;;;;;5.15;1.42;;;15.00;99.90;;;;;;5066779;28;20044;-77
2022/06/02 07:55:49;;;;;;;3.47;0.95;;;14.40;99.90;;;;;;5070820;28;20151;-77
2022/06/02 07:58:55;;;;;;;4.93;1.35;;;14.00;99.90;;;;;;5085273;28;20044;-77
2022/06/02 08:01:21;;;;;;;2.95;0.90;;;13.90;99.90;;;;;;5085330;28;20105;-76
2022/06/02 08:04:17;;;;;;;1.85;1.10;;;14.30;99.90;;;;;;5083539;28;20039;-78
2022/06/02 08:07:00;;;;;;;2.20;1.30;;;14.90;99.90;;;;;;5084480;28;20047;-77
2022/06/02 08:09:28;;;;;;;2.42;1.10;;;15.30;99.90;;;;;;5092159;28;20060;-77
2022/06/02 08:12:42;;;;;;;2.67;1.60;;;15.00;99.90;;;;;;5084347;28;20048;-77
2022/06/02 08:15:14;;;;;;;4.32;1.40;;;15.10;99.90;;;;;;4996685;28;20074;-78
2022/06/02 08:17:55;;;;;;;4.18;1.65;;;15.20;99.90;;;;;;5087997;28;20085;-74
2022/06/02 08:20:58;;;;;;;3.42;1.23;;;15.30;99.90;;;;;;5076776;28;20134;-73
2022/06/02 08:23:24;;;;;;;1.65;0.95;;;14.80;99.90;;;;;;5064140;28;20098;-73
2022/06/02 08:26:10;;;;;;;2.33;1.17;;;15.00;99.90;;;;;;5085570;28;20080;-79
2022/06/02 08:29:24;;;;;;;2.55;1.10;;;15.10;99.90;;;;;;5089169;28;20048;-76
2022/06/02 08:32:33;;;;;;;3.50;1.45;;;15.70;99.90;;;;;;5058131;28;20048;-77
2022/06/02 08:35:10;;;;;;;4.18;1.00;;;15.60;99.90;;;;;;5053189;28;20062;-77
2022/06/02 08:37:55;;;;;;;4.97;1.65;;;16.10;99.90;;;;;;5066317;28;20056;-77
2022/06/02 08:40:36;;;;;;;3.25;1.40;;;16.30;99.90;;;;;;5067197;28;20335;-76
2022/06/02 08:43:23;;;;;;;3.10;1.33;;;16.00;99.90;;;;;;5081815;28;20044;-77
2022/06/02 08:46:10;;;;;;;2.58;1.38;;;15.50;99.90;;;;;;5066318;28;20040;-75
2022/06/02 08:49:00;;;;;;;1.15;1.05;;;15.20;99.90;;;;;;5082355;28;20578;-77
2022/06/02 08:51:59;;;;;;;3.55;1.10;;;15.00;99.90;;;;;;5084224;28;20048;-77
2022/06/02 08:54:50;;;;;;;1.37;0.90;;;15.40;99.90;;;;;;5043841;28;20059;-77
2022/06/02 08:57:24;;;;;;;4.47;1.40;;;15.80;99.90;;;;;;5064549;28;20052;-76
2022/06/02 08:59:58;;;;;;;4.75;1.88;;;16.10;99.90;;;;;;5071237;28;20111;-76
2022/06/02 09:02:51;;;;;;;2.33;0.88;;;15.90;99.90;;;;;;5082627;28;20052;-76
2022/06/02 09:05:23;;;;;;;3.20;1.17;;;15.60;99.90;;;;;;5083407;28;20091;-76
2022/06/02 09:08:05;;;;;;;4.38;0.98;;;15.50;99.90;;;;;;5081541;28;20036;-77
2022/06/02 09:10:34;;;;;;;1.23;0.80;;;15.50;99.90;;;;;;5065946;28;20571;-78
2022/06/02 09:13:06;;;;;;;5.15;1.67;;;16.00;99.90;;;;;;5082069;28;20509;-77
2022/06/02 09:16:10;;;;;;;2.53;2.03;;;15.90;99.90;;;;;;5083926;28;20046;-77
2022/06/02 09:19:13;;;;;;;2.75;1.00;;;15.80;99.90;;;;;;5062267;28;20044;-77
2022/06/02 09:22:00;;;;;;;3.97;1.23;;;15.50;99.90;;;;;;5045742;28;20557;-77
2022/06/02 09:24:51;;;;;;;4.47;1.27;;;15.50;99.90;;;;;;5052977;28;20135;-77
2022/06/02 09:27:55;;;;;;;2.78;1.20;;;16.10;99.90;;;;;;5063728;28;20072;-77
2022/06/02 09:30:43;;;;;;;2.70;1.02;;;16.30;99.90;;;;;;5063139;28;20457;-76
2022/06/02 09:33:33;;;;;;;1.35;1.15;;;16.80;99.90;;;;;;5066064;28;20722;-76
2022/06/02 09:36:36;;;;;;;10.15;1.92;;;17.30;99.90;;;;;;5083593;28;20587;-77
2022/06/02 09:39:33;;;;;;;1.75;1.40;;;16.80;99.90;;;;;;5060691;28;20040;-74
2022/06/02 09:42:11;;;;;;;4.85;1.60;;;16.00;99.90;;;;;;5048752;28;20557;-76
2022/06/02 09:44:57;;;;;;;3.10;1.83;;;15.80;99.90;;;;;;5063978;28;20048;-77
2022/06/02 09:48:00;;;;;;;4.22;1.45;;;15.70;99.90;;;;;;5081649;28;20051;-76
2022/06/02 09:50:48;;;;;;;1.27;1.10;;;15.60;99.90;;;;;;5062974;28;20098;-76
2022/06/02 09:53:35;;;;;;;4.00;1.88;;;16.10;99.90;;;;;;5046274;28;20063;-76
2022/06/02 09:56:38;;;;;;;3.67;1.27;;;16.40;99.90;;;;;;5081995;28;20054;-77
2022/06/02 09:59:36;;;;;;;2.53;1.50;;;17.00;99.90;;;;;;5072636;28;20048;-76
2022/06/02 10:02:46;;;;;;;2.85;1.17;;;17.00;99.90;;;;;;5083012;28;20048;-78
2022/06/02 10:05:28;;;;;;;3.58;1.55;;;16.70;99.90;;;;;;5000093;28;20045;-77
2022/06/02 10:08:02;;;;;;;3.42;1.30;;;16.50;99.90;;;;;;4996233;28;20459;-78
2022/06/02 10:10:55;;;;;;;1.55;1.27;;;16.30;99.90;;;;;;5054836;28;20054;-77
2022/06/02 10:13:37;;;;;;;3.63;1.52;;;16.20;99.90;;;;;;5081839;28;20048;-76
2022/06/02 10:16:31;;;;;;;6.95;1.88;;;16.40;99.90;;;;;;5062903;28;20052;-75
2022/06/02 10:19:06;;;;;;;4.70;1.48;;;16.60;99.90;;;;;;5052980;28;20036;-76
2022/06/02 10:21:38;;;;;;;3.53;1.50;;;17.20;99.90;;;;;;5063512;28;20101;-76
2022/06/02 10:24:25;;;;;;;2.05;1.17;;;17.50;99.90;;;;;;5079643;28;20119;-76
2022/06/02 10:27:22;;;;;;;3.00;1.75;;;17.60;99.90;;;;;;5081042;28;20568;-76
2022/06/02 10:29:55;;;;;;;5.75;1.40;;;17.00;99.90;;;;;;5080925;28;20149;-76
2022/06/02 10:33:04;;;;;;;2.63;1.08;;;16.80;99.90;;;;;;5082965;28;20054;-76
2022/06/02 10:35:59;;;;;;;3.33;1.10;;;16.50;99.90;;;;;;5063614;28;20380;-76
2022/06/02 10:38:34;;;;;;;5.00;1.10;;;16.50;99.90;;;;;;5064563;28;20047;-78
2022/06/02 10:41:34;;;;;;;4.10;1.52;;;16.90;99.90;;;;;;5085336;28;20061;-79
2022/06/02 10:44:14;;;;;;;2.45;1.00;;;17.30;99.90;;;;;;5083236;28;20071;-79
2022/06/02 10:47:01;;;;;;;2.05;0.90;;;17.00;99.90;;;;;;5094732;28;20044;-80
2022/06/02 10:49:44;;;;;;;1.58;0.88;;;17.20;99.90;;;;;;5088405;28;20044;-78
2022/06/02 10:52:44;;;;;;;2.90;1.20;;;17.20;99.90;;;;;;5086887;28;20058;-79
2022/06/02 10:55:33;;;;;;;2.70;1.00;;;17.40;99.90;;;;;;5087677;28;20067;-80
2022/06/02 10:58:36;;;;;;;4.07;1.30;;;17.70;99.90;;;;;;5077298;28;20106;-81
2022/06/02 11:01:24;;;;;;;1.67;0.98;;;17.60;99.90;;;;;;5082347;28;20053;-78
2022/06/02 11:04:28;;;;;;;2.10;0.95;;;17.20;99.90;;;;;;5091906;28;20059;-80
2022/06/02 11:07:22;;;;;;;1.70;0.98;;;17.70;99.90;;;;;;5108787;28;20498;-79
2022/06/02 11:10:02;;;;;;;5.80;1.20;;;18.00;99.90;;;;;;5086151;28;20092;-79
2022/06/02 11:13:00;;;;;;;4.30;2.10;;;18.10;99.90;;;;;;5093612;28;20472;-79
2022/06/02 11:15:47;;;;;;;1.23;1.13;;;18.30;99.90;;;;;;5093878;28;20140;-79
2022/06/02 11:18:34;;;;;;;1.92;1.27;;;18.00;99.90;;;;;;5093676;28;20426;-82
2022/06/02 11:21:23;;;;;;;2.22;1.38;;;17.90;99.90;;;;;;5051395;28;20136;-82
2022/06/02 11:24:14;;;;;;;1.73;1.08;;;18.10;99.90;;;;;;5086599;28;20035;-82
2022/06/02 11:26:45;;;;;;;2.85;1.10;;;18.00;99.90;;;;;;5093811;28;20044;-87
2022/06/02 11:29:45;;;;;;;3.28;1.10;;;17.90;99.90;;;;;;5085868;28;20043;-88
2022/06/02 11:32:43;;;;;;;1.63;1.00;;;17.40;99.90;;;;;;5083268;28;20089;-83
2022/06/02 11:35:17;;;;;;;2.42;1.00;;;17.30;99.90;;;;;;5078589;28;20044;-83
2022/06/02 11:37:52;;;;;;;2.72;1.00;;;17.40;99.90;;;;;;5086340;28;20077;-83
2022/06/02 11:40:36;;;;;;;1.95;1.10;;;17.30;99.90;;;;;;5054619;28;20151;-83
2022/06/02 11:43:15;;;;;;;2.25;1.20;;;17.10;99.90;;;;;;5088263;28;20048;-82
2022/06/02 11:46:03;;;;;;;3.55;1.13;;;17.50;99.90;;;;;;5101528;28;20081;-82
2022/06/02 11:48:58;;;;;;;3.85;1.65;;;17.90;99.90;;;;;;5092287;28;20040;-83
2022/06/02 11:51:48;;;;;;;3.50;1.33;;;17.30;99.90;;;;;;5071423;28;20051;-84
2022/06/02 11:54:39;;;;;;;2.30;0.90;;;17.20;99.90;;;;;;5087567;28;20070;-82
2022/06/02 11:57:20;;;;;;;3.53;1.60;;;16.80;99.90;;;;;;5086450;28;20043;-83
2022/06/02 11:59:54;;;;;;;4.85;1.75;;;16.50;99.90;;;;;;5086026;28;20040;-81
2022/06/02 12:02:39;;;;;;;3.55;1.27;;;16.50;99.90;;;;;;5089075;28;20045;-81
2022/06/02 12:05:39;;;;;;;2.05;1.20;;;16.70;99.90;;;;;;5080968;28;20403;-80
2022/06/02 12:08:32;;;;;;;1.15;1.00;;;16.70;99.90;;;;;;5066583;28;20042;-80
2022/06/02 12:11:39;;;;;;;2.47;1.42;;;16.80;99.90;;;;;;5096121;28;20546;-83
2022/06/02 12:14:35;;;;;;;2.78;0.98;;;16.80;99.90;;;;;;5003596;28;20544;-81
2022/06/02 12:17:20;;;;;;;4.63;1.25;;;16.70;99.90;;;;;;5072445;28;20044;-79
2022/06/02 12:19:49;;;;;;;1.45;0.95;;;16.50;99.90;;;;;;5079960;28;20043;-80
2022/06/02 12:22:17;;;;;;;2.90;1.20;;;16.50;99.90;;;;;;5054055;28;20055;-80
2022/06/02 12:25:12;;;;;;;3.17;1.17;;;16.50;99.90;;;;;;5077034;28;20517;-81
2022/06/02 12:27:41;;;;;;;3.88;1.55;;;17.20;99.90;;;;;;5073663;28;20044;-81
2022/06/02 12:30:17;;;;;;;2.25;1.05;;;17.90;99.90;;;;;;5067008;28;20367;-81
2022/06/02 12:32:58;;;;;;;2.50;1.08;;;18.10;99.90;;;;;;5079666;28;20047;-81
2022/06/02 12:35:47;;;;;;;4.75;2.05;;;18.40;99.90;;;;;;5105026;28;20044;-81
2022/06/02 12:38:55;;;;;;;1.40;1.30;;;18.20;99.90;;;;;;5081215;28;20101;-80
2022/06/02 12:41:49;;;;;;;4.70;1.45;;;18.00;99.90;;;;;;5084841;28;20080;-77
2022/06/02 12:44:17;;;;;;;2.78;1.27;;;17.60;99.90;;;;;;5059248;28;20414;-78
2022/06/02 12:47:28;;;;;;;2.17;1.20;;;17.60;99.90;;;;;;5086161;28;20127;-79
2022/06/02 12:50:13;;;;;;;4.25;1.45;;;17.90;99.90;;;;;;5052164;28;20448;-80
2022/06/02 12:53:15;;;;;;;5.20;1.35;;;17.70;99.90;;;;;;5064295;28;20063;-79
2022/06/02 12:55:59;;;;;;;2.22;0.93;;;17.80;99.90;;;;;;5084441;28;20165;-79
2022/06/02 12:58:34;;;;;;;3.67;0.80;;;17.70;99.90;;;;;;5064445;28;20537;-79
2022/06/02 13:01:18;;;;;;;2.63;1.42;;;17.80;99.90;;;;;;5074658;28;20106;-80
2022/06/02 13:04:12;;;;;;;2.95;1.00;;;17.80;99.90;;;;;;5086326;28;20051;-80
2022/06/02 13:06:56;;;;;;;2.05;1.30;;;18.10;99.90;;;;;;5077397;28;20611;-81
2022/06/02 13:09:59;;;;;;;2.03;1.02;;;18.20;99.90;;;;;;5084099;28;20155;-80
2022/06/02 13:13:07;;;;;;;5.88;1.75;;;18.40;99.90;;;;;;5067731;28;20067;-81
2022/06/02 13:15:44;;;;;;;3.95;1.55;;;18.60;99.90;;;;;;5071095;28;20052;-81
2022/06/02 13:18:52;;;;;;;2.22;1.10;;;18.50;99.90;;;;;;5066283;28;20055;-80
2022/06/02 13:21:45;;;;;;;1.05;1.00;;;18.60;99.90;;;;;;5079174;28;20040;-82
2022/06/02 13:24:29;;;;;;;2.03;1.10;;;18.20;99.90;;;;;;5076623;28;20097;-82
2022/06/02 13:27:04;;;;;;;1.98;0.80;;;17.60;99.90;;;;;;5074551;28;20037;-81
2022/06/02 13:30:06;;;;;;;1.45;1.35;;;17.50;99.90;;;;;;5099023;28;20130;-80
2022/06/02 13:32:51;;;;;;;3.05;1.25;;;17.60;99.90;;;;;;5084248;28;20528;-81
2022/06/02 13:35:30;;;;;;;3.05;1.58;;;17.60;99.90;;;;;;5074034;28;20553;-82
2022/06/02 13:38:18;;;;;;;2.53;1.23;;;17.80;99.90;;;;;;5083023;28;20130;-80
2022/06/02 13:41:21;;;;;;;1.42;0.95;;;18.20;99.90;;;;;;5085144;28;20048;-81
2022/06/02 13:44:25;;;;;;;1.80;1.27;;;18.80;99.90;;;;;;5085462;28;20044;-80
2022/06/02 13:47:15;;;;;;;7.07;1.40;;;19.00;99.90;;;;;;5058576;28;20526;-82
2022/06/02 13:50:09;;;;;;;1.40;0.93;;;19.00;99.90;;;;;;5083425;28;20474;-80
2022/06/02 13:52:40;;;;;;;2.33;1.00;;;18.80;99.90;;;;;;5094113;28;20498;-83
2022/06/02 13:58:14;;;;;;;1.77;0.70;;;19.20;99.90;;;;;;5073289;28;20052;-81
2022/06/02 14:00:58;;;;;;;2.53;1.52;;;19.00;99.90;;;;;;5066094;28;20058;-82
2022/06/02 14:03:42;;;;;;;2.70;1.48;;;19.20;99.90;;;;;;5075345;28;20579;-82
2022/06/02 14:06:16;;;;;;;1.05;0.82;;;19.00;99.90;;;;;;5080312;28;20096;-80
2022/06/02 14:09:09;;;;;;;2.60;1.27;;;19.10;99.90;;;;;;5080517;28;20132;-81
2022/06/02 14:12:04;;;;;;;1.08;0.80;;;18.80;99.90;;;;;;5076525;28;20516;-80
2022/06/02 14:14:48;;;;;;;5.13;1.52;;;18.60;99.90;;;;;;5052161;28;20044;-81
2022/06/02 14:17:32;;;;;;;2.17;0.93;;;18.90;99.90;;;;;;5083896;28;20135;-83
2022/06/02 14:20:19;;;;;;;2.80;1.10;;;18.50;99.90;;;;;;5093696;28;20028;-80
2022/06/02 14:23:11;;;;;;;2.08;1.70;;;18.60;99.90;;;;;;5080612;28;20039;-75
2022/06/02 14:26:04;;;;;;;3.35;1.27;;;18.30;99.90;;;;;;5077953;28;20076;-79
2022/06/02 14:28:55;;;;;;;3.97;1.00;;;18.10;99.90;;;;;;5080537;28;20089;-80
2022/06/02 14:31:38;;;;;;;1.63;1.08;;;17.60;99.90;;;;;;5077091;28;20052;-76
2022/06/02 14:34:16;;;;;;;2.25;0.98;;;17.70;99.90;;;;;;5070868;28;20048;-76